Time;durP1;ratioP1;P1;durP2;ratioP2;P2;SDS_P1;SDS_P2;PMS_P1;PMS_P2;Temp;Humidity;BMP_temperature;BMP_pressure;BME280_temperature;BME280_humidity;BME280_pressure;Samples;Min_cycle;Max_cycle;Signal;HPM_P1;HPM_P2
2022/08/29 00:01:20;;;;;;;31.13;14.73;;;15.40;70.20;;;;;;4981758;28;46277;-70
2022/08/29 00:03:46;;;;;;;20.07;14.30;;;15.40;70.10;;;;;;4981605;28;45878;-69
2022/08/29 00:06:12;;;;;;;24.57;14.13;;;15.40;70.40;;;;;;4981493;28;46237;-70
2022/08/29 00:08:38;;;;;;;25.93;14.10;;;15.40;70.50;;;;;;4980235;28;46945;-71
2022/08/29 00:11:08;;;;;;;19.30;13.67;;;15.30;69.70;;;;;;4982558;28;46438;-72
2022/08/29 00:13:35;;;;;;;22.33;13.50;;;15.30;70.70;;;;;;4980747;28;46389;-70
2022/08/29 00:16:00;;;;;;;22.00;11.97;;;15.20;71.00;;;;;;4981814;28;48292;-70
2022/08/29 00:18:26;;;;;;;21.47;12.00;;;15.20;71.10;;;;;;4980105;28;46063;-69
2022/08/29 00:20:52;;;;;;;18.00;12.00;;;15.10;71.30;;;;;;4982331;28;46422;-69
2022/08/29 00:23:18;;;;;;;18.63;11.20;;;15.10;71.10;;;;;;4979585;28;46538;-69
2022/08/29 00:25:44;;;;;;;19.30;12.90;;;15.10;71.20;;;;;;4981025;28;46564;-71
2022/08/29 00:28:10;;;;;;;19.07;12.50;;;15.10;71.30;;;;;;4981880;28;46203;-70
2022/08/29 00:30:36;;;;;;;20.33;12.67;;;15.10;71.10;;;;;;4981401;28;46392;-70
2022/08/29 00:33:02;;;;;;;19.57;12.07;;;15.10;71.10;;;;;;4980922;28;46355;-71
2022/08/29 00:35:31;;;;;;;18.60;11.73;;;15.10;71.20;;;;;;4981381;28;46421;-70
2022/08/29 00:37:57;;;;;;;19.93;12.30;;;15.10;71.10;;;;;;4980789;28;46418;-70
2022/08/29 00:40:27;;;;;;;20.03;12.33;;;15.10;71.10;;;;;;4982224;28;46603;-71
2022/08/29 00:42:53;;;;;;;20.60;11.30;;;15.10;71.10;;;;;;4979025;28;46276;-70
2022/08/29 00:45:19;;;;;;;15.93;10.93;;;15.10;71.10;;;;;;4981840;28;46375;-71
2022/08/29 00:47:50;;;;;;;20.90;12.37;;;15.10;72.30;;;;;;4981440;28;46490;-70
2022/08/29 00:50:25;;;;;;;16.27;11.40;;;15.10;71.00;;;;;;4982729;28;46010;-69
2022/08/29 00:52:51;;;;;;;21.77;12.57;;;15.10;70.90;;;;;;4981131;28;45868;-70
2022/08/29 00:55:21;;;;;;;24.40;12.20;;;15.10;70.70;;;;;;4980676;28;46151;-70
2022/08/29 00:57:51;;;;;;;22.27;13.40;;;15.10;71.70;;;;;;4977571;28;45948;-71
2022/08/29 01:00:18;;;;;;;19.10;11.33;;;15.00;70.50;;;;;;4981463;28;46384;-70
2022/08/29 01:02:44;;;;;;;18.83;12.13;;;15.00;70.60;;;;;;4981478;28;46527;-71
2022/08/29 01:05:14;;;;;;;16.57;12.07;;;15.00;70.60;;;;;;4980037;28;46915;-72
2022/08/29 01:07:40;;;;;;;16.70;11.20;;;15.00;70.80;;;;;;4980274;28;46203;-70
2022/08/29 01:10:06;;;;;;;15.60;10.40;;;14.90;70.90;;;;;;4982458;28;46300;-70
2022/08/29 01:12:34;;;;;;;17.10;10.07;;;14.90;71.00;;;;;;4978394;28;46106;-70
2022/08/29 01:15:07;;;;;;;17.33;10.80;;;14.90;71.10;;;;;;4981196;28;46589;-69
2022/08/29 01:17:39;;;;;;;20.83;10.80;;;14.90;71.10;;;;;;4980866;28;45756;-69
2022/08/29 01:20:26;;;;;;;17.20;10.90;;;14.90;71.10;;;;;;4981298;28;46445;-69
2022/08/29 01:23:19;;;;;;;18.23;10.20;;;14.90;71.10;;;;;;4980531;28;46395;-71
2022/08/29 01:25:49;;;;;;;15.03;10.30;;;14.90;71.10;;;;;;4980258;28;46387;-69
2022/08/29 01:28:21;;;;;;;13.33;9.60;;;14.90;71.10;;;;;;4979584;28;46376;-71
2022/08/29 01:31:06;;;;;;;10.77;8.20;;;14.90;71.10;;;;;;4981140;28;46475;-70
2022/08/29 01:33:37;;;;;;;13.53;9.03;;;14.80;71.40;;;;;;4980493;28;46554;-70
2022/08/29 01:36:03;;;;;;;13.13;8.60;;;14.70;71.50;;;;;;4981339;28;46662;-72
2022/08/29 01:38:29;;;;;;;13.53;9.97;;;14.70;71.60;;;;;;4980709;28;46405;-69
2022/08/29 01:40:57;;;;;;;18.83;10.57;;;14.60;71.60;;;;;;4980851;28;46304;-70
2022/08/29 01:43:24;;;;;;;14.70;10.87;;;14.60;71.60;;;;;;4994461;28;46400;-70
2022/08/29 01:45:50;;;;;;;18.97;10.50;;;14.60;71.70;;;;;;4976934;28;48109;-70
2022/08/29 01:48:17;;;;;;;18.20;9.80;;;14.60;71.60;;;;;;4978308;28;46580;-69
2022/08/29 01:50:43;;;;;;;25.60;10.10;;;14.60;71.70;;;;;;4980482;28;46407;-70
2022/08/29 01:53:09;;;;;;;18.90;9.90;;;14.60;71.80;;;;;;4976148;28;46435;-70
2022/08/29 01:55:36;;;;;;;16.43;9.53;;;14.50;72.00;;;;;;4980318;28;47227;-71
2022/08/29 01:58:02;;;;;;;16.97;9.80;;;14.50;71.90;;;;;;4979567;28;46419;-69
2022/08/29 02:00:28;;;;;;;18.50;10.83;;;14.50;71.80;;;;;;4980703;28;46500;-71
2022/08/29 02:02:55;;;;;;;18.23;10.07;;;14.50;71.70;;;;;;4977888;28;46517;-69
2022/08/29 02:05:22;;;;;;;21.67;9.90;;;14.50;71.70;;;;;;4978788;28;46587;-70
2022/08/29 02:07:48;;;;;;;23.70;10.10;;;14.40;71.70;;;;;;4978698;28;46972;-69
2022/08/29 02:10:14;;;;;;;15.17;10.27;;;14.40;71.50;;;;;;4979595;28;46499;-70
2022/08/29 02:12:40;;;;;;;16.20;9.73;;;14.50;70.50;;;;;;4977672;28;47283;-70
2022/08/29 02:15:06;;;;;;;17.00;9.70;;;14.50;71.40;;;;;;4980722;28;46713;-71
2022/08/29 02:17:32;;;;;;;19.10;11.10;;;14.40;71.30;;;;;;4978586;28;46470;-71
2022/08/29 02:19:58;;;;;;;18.40;10.07;;;14.40;71.50;;;;;;4979694;28;46586;-72
2022/08/29 02:22:23;;;;;;;15.87;10.23;;;14.40;71.70;;;;;;4978470;28;46481;-70
2022/08/29 02:24:49;;;;;;;16.57;9.90;;;14.40;71.60;;;;;;4979618;28;46364;-70
2022/08/29 02:27:14;;;;;;;21.00;10.90;;;14.40;71.50;;;;;;4978391;28;46327;-71
2022/08/29 02:29:42;;;;;;;14.73;10.63;;;14.40;71.40;;;;;;4979048;28;45886;-71
2022/08/29 02:32:11;;;;;;;20.77;10.53;;;14.50;71.40;;;;;;4979546;28;46433;-70
2022/08/29 02:34:37;;;;;;;16.70;9.10;;;14.40;71.50;;;;;;4979821;28;47216;-69
2022/08/29 02:37:04;;;;;;;12.00;8.80;;;14.40;71.70;;;;;;4979118;28;46465;-72
2022/08/29 02:39:30;;;;;;;12.10;8.40;;;14.40;71.50;;;;;;4974866;28;46351;-69
2022/08/29 02:41:56;;;;;;;15.57;8.60;;;14.40;71.40;;;;;;4976292;28;46742;-70
2022/08/29 02:44:22;;;;;;;13.70;9.47;;;14.30;71.50;;;;;;4978250;28;46458;-71
2022/08/29 02:46:47;;;;;;;15.03;8.73;;;14.30;71.50;;;;;;4976186;28;46498;-70
2022/08/29 02:49:13;;;;;;;17.07;8.40;;;14.30;71.70;;;;;;4979223;28;46463;-70
2022/08/29 02:51:39;;;;;;;11.83;7.97;;;14.20;71.80;;;;;;4975279;28;45901;-69
2022/08/29 02:54:05;;;;;;;14.70;7.27;;;14.20;72.00;;;;;;4979396;28;46706;-70
2022/08/29 02:56:30;;;;;;;12.87;8.57;;;14.20;72.10;;;;;;4977611;28;46412;-70
2022/08/29 02:58:57;;;;;;;13.63;8.07;;;14.20;72.20;;;;;;4979169;28;46249;-69
2022/08/29 03:01:24;;;;;;;11.23;7.17;;;14.10;72.20;;;;;;4980889;28;46654;-70
2022/08/29 03:03:51;;;;;;;12.20;7.27;;;14.10;73.50;;;;;;4979571;28;47088;-70
2022/08/29 03:06:18;;;;;;;15.53;7.93;;;14.10;72.30;;;;;;4979884;28;46420;-70
2022/08/29 03:08:43;;;;;;;11.97;8.40;;;14.00;72.10;;;;;;4977460;28;46422;-71
2022/08/29 03:11:09;;;;;;;11.20;7.43;;;14.00;71.00;;;;;;4979864;28;46555;-70
2022/08/29 03:13:36;;;;;;;16.30;9.33;;;14.00;72.00;;;;;;4978730;28;47031;-70
2022/08/29 03:16:02;;;;;;;9.90;7.30;;;14.20;72.30;;;;;;4981877;28;46443;-70
2022/08/29 03:18:28;;;;;;;13.43;7.67;;;14.10;72.00;;;;;;4982844;28;46392;-70
2022/08/29 03:20:54;;;;;;;14.13;8.47;;;14.10;71.90;;;;;;4982375;28;46309;-70
2022/08/29 03:23:20;;;;;;;12.60;7.90;;;14.10;70.80;;;;;;4982940;28;46494;-69
2022/08/29 03:25:45;;;;;;;11.20;7.53;;;14.10;71.90;;;;;;4981523;28;46512;-70
2022/08/29 03:28:11;;;;;;;12.53;7.83;;;14.10;72.00;;;;;;4982279;28;46521;-71
2022/08/29 03:30:37;;;;;;;10.47;7.50;;;14.10;72.00;;;;;;4981610;28;46681;-70
2022/08/29 03:33:04;;;;;;;11.10;7.30;;;14.10;72.10;;;;;;4983214;28;46407;-69
2022/08/29 03:35:30;;;;;;;11.50;7.50;;;14.10;72.10;;;;;;4981805;28;45718;-71
2022/08/29 03:37:56;;;;;;;12.63;7.40;;;14.10;72.20;;;;;;4981156;28;46523;-70
2022/08/29 03:40:22;;;;;;;13.50;6.87;;;14.00;72.20;;;;;;4981911;28;45983;-69
2022/08/29 03:42:48;;;;;;;18.03;6.97;;;14.00;72.30;;;;;;4982102;28;46361;-70
2022/08/29 03:45:17;;;;;;;13.13;6.70;;;13.90;72.30;;;;;;4982980;28;46486;-70
2022/08/29 03:47:43;;;;;;;9.40;6.47;;;13.90;72.30;;;;;;4981920;28;46471;-71
2022/08/29 03:50:11;;;;;;;10.57;6.20;;;13.90;72.30;;;;;;4983414;28;46436;-70
2022/08/29 03:52:38;;;;;;;11.60;6.33;;;13.90;72.50;;;;;;4981770;28;46355;-68
2022/08/29 03:55:05;;;;;;;10.20;6.30;;;13.80;72.40;;;;;;4982660;28;46379;-70
2022/08/29 03:57:31;;;;;;;8.73;6.23;;;13.80;72.70;;;;;;4980962;28;46403;-69
2022/08/29 03:59:58;;;;;;;8.90;6.00;;;13.80;72.70;;;;;;4981161;28;45935;-70
2022/08/29 04:02:24;;;;;;;11.17;6.13;;;13.80;72.70;;;;;;4980272;28;46805;-71
2022/08/29 04:05:08;;;;;;;8.53;6.20;;;13.80;72.70;;;;;;4981983;28;46301;-70
2022/08/29 04:07:39;;;;;;;9.67;6.30;;;13.80;72.70;;;;;;4981998;28;46543;-69
2022/08/29 04:10:07;;;;;;;10.03;7.10;;;13.80;72.50;;;;;;4983173;28;46435;-69
2022/08/29 04:12:32;;;;;;;12.60;9.07;;;13.80;72.30;;;;;;4981834;28;46833;-70
2022/08/29 04:14:58;;;;;;;11.90;8.63;;;13.80;72.00;;;;;;4982686;28;46371;-70
2022/08/29 04:17:23;;;;;;;18.90;10.40;;;13.90;71.80;;;;;;4981640;28;46417;-70
2022/08/29 04:19:49;;;;;;;13.70;9.90;;;13.90;71.60;;;;;;4981741;28;46648;-70
2022/08/29 04:22:14;;;;;;;18.90;11.50;;;14.00;71.50;;;;;;4981106;28;46597;-70
2022/08/29 04:24:40;;;;;;;20.53;11.27;;;13.90;71.40;;;;;;4982403;28;45796;-70
2022/08/29 04:27:06;;;;;;;23.70;10.60;;;14.00;71.60;;;;;;4980184;28;46296;-70
2022/08/29 04:29:33;;;;;;;16.87;9.47;;;14.00;71.60;;;;;;4981654;28;46394;-71
2022/08/29 04:31:58;;;;;;;15.80;9.50;;;14.00;71.60;;;;;;4981413;28;46661;-69
2022/08/29 04:34:24;;;;;;;86.53;12.43;;;14.00;71.30;;;;;;4981660;28;46462;-71
2022/08/29 04:36:50;;;;;;;74.93;11.87;;;14.10;71.10;;;;;;4980808;28;46407;-70
2022/08/29 04:39:15;;;;;;;105.23;13.00;;;14.20;71.10;;;;;;4982437;28;46577;-70
2022/08/29 04:41:41;;;;;;;64.50;11.80;;;14.20;70.90;;;;;;4982484;28;46407;-70
2022/08/29 04:44:09;;;;;;;52.83;11.97;;;14.30;70.90;;;;;;4982378;28;45796;-68
2022/08/29 04:46:35;;;;;;;47.40;11.83;;;14.40;70.80;;;;;;4980937;28;46416;-71
2022/08/29 04:49:00;;;;;;;43.90;12.13;;;14.40;70.50;;;;;;4981953;28;46308;-70
2022/08/29 04:51:27;;;;;;;34.67;11.90;;;14.50;70.60;;;;;;4977716;28;47076;-72
2022/08/29 04:53:52;;;;;;;35.67;10.40;;;14.60;70.50;;;;;;4980201;28;46335;-70
2022/08/29 04:56:19;;;;;;;27.17;10.17;;;14.60;71.70;;;;;;4981139;28;46421;-70
2022/08/29 04:58:46;;;;;;;52.33;9.30;;;14.70;70.80;;;;;;4981849;28;46702;-70
2022/08/29 05:01:14;;;;;;;58.27;9.87;;;14.80;70.50;;;;;;4980522;28;46958;-69
2022/08/29 05:03:40;;;;;;;37.77;8.50;;;14.80;71.60;;;;;;4981523;28;46679;-70
2022/08/29 05:06:09;;;;;;;58.73;9.40;;;14.80;71.80;;;;;;4979021;28;46315;-69
2022/08/29 05:08:37;;;;;;;26.20;8.60;;;15.00;71.30;;;;;;4981278;28;46518;-69
2022/08/29 05:11:05;;;;;;;50.47;7.90;;;15.10;71.00;;;;;;4979218;28;46516;-71
2022/08/29 05:13:32;;;;;;;51.00;7.93;;;15.10;72.10;;;;;;4979872;28;46253;-71
2022/08/29 05:15:58;;;;;;;45.10;8.80;;;15.20;72.00;;;;;;4979132;28;46289;-70
2022/08/29 05:18:23;;;;;;;35.00;8.00;;;15.20;72.20;;;;;;4979975;28;46597;-71
2022/08/29 05:20:49;;;;;;;29.30;7.90;;;15.30;72.20;;;;;;4980193;28;46246;-69
2022/08/29 05:23:16;;;;;;;26.07;7.23;;;15.40;71.00;;;;;;4980119;28;46455;-70
2022/08/29 05:25:42;;;;;;;30.43;6.70;;;15.60;71.50;;;;;;4978971;28;46294;-70
2022/08/29 05:28:10;;;;;;;15.77;6.20;;;15.80;71.00;;;;;;4980029;28;46371;-69
2022/08/29 05:30:37;;;;;;;11.93;5.50;;;16.00;70.40;;;;;;4978452;28;46633;-70
2022/08/29 05:33:04;;;;;;;11.20;5.10;;;16.30;69.20;;;;;;4980906;28;46438;-67
2022/08/29 05:35:31;;;;;;;10.73;5.93;;;16.60;70.60;;;;;;4980487;28;46413;-70
2022/08/29 05:37:56;;;;;;;11.77;5.27;;;16.80;70.70;;;;;;4979340;28;46387;-69
2022/08/29 05:40:22;;;;;;;12.73;5.40;;;16.90;70.20;;;;;;4978127;28;46628;-70
2022/08/29 05:42:47;;;;;;;9.63;5.63;;;17.20;69.40;;;;;;4981144;28;46426;-70
2022/08/29 05:45:13;;;;;;;20.80;5.40;;;17.40;68.70;;;;;;4980787;28;46476;-68
2022/08/29 05:47:39;;;;;;;23.67;6.20;;;17.60;68.00;;;;;;4979768;28;46666;-70
2022/08/29 05:50:06;;;;;;;11.17;5.00;;;17.80;67.70;;;;;;4979235;28;46921;-69
2022/08/29 05:52:31;;;;;;;15.83;4.87;;;18.00;67.20;;;;;;4979430;28;46665;-70
2022/08/29 05:54:57;;;;;;;15.53;4.60;;;18.30;66.40;;;;;;4979612;28;46478;-70
2022/08/29 05:57:23;;;;;;;9.00;4.97;;;18.50;65.60;;;;;;4978251;28;46263;-70
2022/08/29 05:59:51;;;;;;;5.67;4.93;;;18.70;65.20;;;;;;4980655;28;46413;-70
2022/08/29 06:02:17;;;;;;;5.00;3.77;;;19.10;64.50;;;;;;4980724;28;46406;-70
2022/08/29 06:04:44;;;;;;;4.83;3.70;;;19.80;63.30;;;;;;4979816;28;46439;-70
2022/08/29 06:07:10;;;;;;;5.30;4.47;;;20.30;61.70;;;;;;4978805;28;46396;-70
2022/08/29 06:09:38;;;;;;;4.70;3.90;;;20.80;60.80;;;;;;4979202;28;46625;-68
2022/08/29 06:12:04;;;;;;;5.13;4.27;;;21.30;58.90;;;;;;4980080;28;46361;-70
2022/08/29 06:14:30;;;;;;;4.63;3.57;;;21.50;58.50;;;;;;4979156;28;46328;-68
2022/08/29 06:16:56;;;;;;;5.93;4.13;;;21.70;55.20;;;;;;4977657;28;46753;-69
2022/08/29 06:19:21;;;;;;;5.17;3.97;;;21.80;53.10;;;;;;4973658;28;47299;-69
2022/08/29 06:21:47;;;;;;;4.80;4.07;;;21.30;53.40;;;;;;4976564;28;46543;-69
2022/08/29 06:24:14;;;;;;;7.27;4.10;;;21.00;54.20;;;;;;4977203;28;46511;-68
2022/08/29 06:26:39;;;;;;;4.40;3.50;;;20.70;54.80;;;;;;4978270;28;46201;-69
2022/08/29 06:29:08;;;;;;;16.30;5.30;;;20.50;55.50;;;;;;4977362;28;46355;-69
2022/08/29 06:31:34;;;;;;;12.50;4.60;;;20.50;55.80;;;;;;4977114;28;46452;-69
2022/08/29 06:34:03;;;;;;;15.97;4.53;;;20.40;55.80;;;;;;4980376;28;46332;-70
2022/08/29 06:36:31;;;;;;;6.17;4.63;;;20.40;55.00;;;;;;4976995;28;46450;-70
2022/08/29 06:38:59;;;;;;;7.43;4.87;;;20.60;54.10;;;;;;4977847;28;46880;-69
2022/08/29 06:41:25;;;;;;;9.10;4.90;;;20.60;53.60;;;;;;4977870;28;46462;-71
2022/08/29 06:43:53;;;;;;;9.77;4.90;;;20.90;53.30;;;;;;4978062;28;46462;-69
2022/08/29 06:46:29;;;;;;;13.13;5.40;;;21.00;52.70;;;;;;4978320;28;46521;-69
2022/08/29 06:48:56;;;;;;;7.67;5.03;;;21.10;52.30;;;;;;4978845;28;47020;-71
2022/08/29 06:51:22;;;;;;;6.37;4.60;;;21.10;51.30;;;;;;4980393;28;46376;-71
2022/08/29 06:53:48;;;;;;;7.30;5.20;;;21.10;52.30;;;;;;4980585;28;46625;-67
2022/08/29 06:56:14;;;;;;;5.87;4.67;;;21.10;52.10;;;;;;4982992;28;46513;-68
2022/08/29 06:58:41;;;;;;;7.20;4.63;;;21.10;52.30;;;;;;4983129;28;46463;-69
2022/08/29 07:01:12;;;;;;;8.13;4.50;;;21.00;52.70;;;;;;4980018;28;45800;-71
2022/08/29 07:03:39;;;;;;;6.00;4.60;;;21.00;52.70;;;;;;4980651;28;46275;-72
2022/08/29 07:06:06;;;;;;;6.00;5.10;;;20.90;53.30;;;;;;4982284;28;46455;-69
2022/08/29 07:08:32;;;;;;;7.03;4.33;;;20.80;54.70;;;;;;4981102;28;46544;-70
2022/08/29 07:10:58;;;;;;;4.97;4.10;;;20.90;53.40;;;;;;4982184;28;46372;-70
2022/08/29 07:13:24;;;;;;;7.93;5.03;;;20.80;53.40;;;;;;4981996;28;46415;-69
2022/08/29 07:15:50;;;;;;;8.47;4.40;;;20.90;53.50;;;;;;4981197;28;46468;-69
2022/08/29 07:18:15;;;;;;;7.60;5.00;;;21.00;53.30;;;;;;4981399;28;47331;-72
2022/08/29 07:20:41;;;;;;;6.10;4.90;;;21.00;53.10;;;;;;4980001;28;46457;-70
2022/08/29 07:23:07;;;;;;;5.77;4.47;;;20.90;53.30;;;;;;4980963;28;46382;-68
2022/08/29 07:25:33;;;;;;;6.50;4.77;;;21.10;53.30;;;;;;4981648;28;46495;-69
2022/08/29 07:27:59;;;;;;;8.60;5.07;;;21.20;53.20;;;;;;4980255;28;46153;-70
2022/08/29 07:30:24;;;;;;;5.80;4.90;;;21.30;53.00;;;;;;4980642;28;46387;-70
2022/08/29 07:32:50;;;;;;;8.87;5.70;;;21.30;52.90;;;;;;4980904;28;46391;-69
2022/08/29 07:35:17;;;;;;;6.97;5.13;;;20.90;53.80;;;;;;4981568;28;46727;-70
2022/08/29 07:37:42;;;;;;;11.40;5.40;;;20.80;54.20;;;;;;4981144;28;46415;-71
2022/08/29 07:40:11;;;;;;;7.93;5.17;;;20.80;54.70;;;;;;4978467;28;46461;-69
2022/08/29 07:42:37;;;;;;;6.83;5.53;;;20.90;54.30;;;;;;4980715;28;46368;-70
2022/08/29 07:45:05;;;;;;;9.10;5.03;;;21.20;53.80;;;;;;4981359;28;46360;-69
2022/08/29 07:47:31;;;;;;;6.77;4.80;;;21.30;53.40;;;;;;4979867;28;48401;-70
2022/08/29 07:49:58;;;;;;;8.73;5.30;;;21.40;53.30;;;;;;4980807;28;46360;-71
2022/08/29 07:52:24;;;;;;;6.93;5.27;;;21.70;53.70;;;;;;4993442;28;46525;-70
2022/08/29 07:54:49;;;;;;;6.10;5.03;;;21.70;52.20;;;;;;4980964;28;46422;-70
2022/08/29 07:57:16;;;;;;;7.13;5.20;;;21.50;53.10;;;;;;4980781;28;46980;-70
2022/08/29 07:59:43;;;;;;;8.57;5.10;;;21.60;52.60;;;;;;4981426;28;45872;-68
2022/08/29 08:02:09;;;;;;;6.00;5.00;;;21.80;52.30;;;;;;4979622;28;46380;-70
2022/08/29 08:04:34;;;;;;;7.10;5.87;;;22.10;51.80;;;;;;4980810;28;46391;-70
2022/08/29 08:07:00;;;;;;;7.13;4.90;;;22.20;51.60;;;;;;4980703;28;46536;-68
2022/08/29 08:09:25;;;;;;;8.03;5.10;;;22.30;52.00;;;;;;4986768;28;46576;-70
2022/08/29 08:11:51;;;;;;;6.60;5.63;;;22.40;51.60;;;;;;4981357;28;46503;-68
2022/08/29 08:14:17;;;;;;;10.37;6.23;;;22.60;51.30;;;;;;4979996;28;46568;-70
2022/08/29 08:16:43;;;;;;;7.40;5.70;;;22.60;51.30;;;;;;4980922;28;46396;-69
2022/08/29 08:19:09;;;;;;;8.90;6.67;;;22.50;51.70;;;;;;4980516;28;46414;-73
2022/08/29 08:21:34;;;;;;;9.87;6.07;;;22.60;51.30;;;;;;4980293;28;46504;-70
2022/08/29 08:24:01;;;;;;;10.60;6.43;;;22.40;51.50;;;;;;4981352;28;46380;-72
2022/08/29 08:26:27;;;;;;;9.30;6.70;;;22.20;52.50;;;;;;4980444;28;47399;-69
2022/08/29 08:28:52;;;;;;;7.93;5.73;;;22.10;52.30;;;;;;4981059;28;46686;-73
2022/08/29 08:31:19;;;;;;;10.03;6.67;;;21.90;51.90;;;;;;4980779;28;46445;-69
2022/08/29 08:33:46;;;;;;;10.30;6.93;;;22.00;53.00;;;;;;4981090;28;46463;-71
2022/08/29 08:36:22;;;;;;;10.10;7.00;;;22.00;52.70;;;;;;4980683;28;47279;-69
2022/08/29 08:38:48;;;;;;;10.10;6.80;;;22.10;52.80;;;;;;4977745;28;46436;-69
2022/08/29 08:41:23;;;;;;;8.17;6.90;;;22.50;51.10;;;;;;4975526;28;46723;-70
2022/08/29 08:43:54;;;;;;;14.40;8.73;;;22.50;52.10;;;;;;4979569;28;46617;-69
2022/08/29 08:46:39;;;;;;;13.00;8.30;;;22.60;51.90;;;;;;4978423;28;47097;-70
2022/08/29 08:49:13;;;;;;;12.37;8.43;;;22.40;51.90;;;;;;4979631;28;46488;-70
2022/08/29 08:51:46;;;;;;;19.93;9.03;;;22.60;51.80;;;;;;4979124;28;46422;-71
2022/08/29 08:54:21;;;;;;;11.13;9.40;;;22.80;51.20;;;;;;4979920;28;46419;-70
2022/08/29 08:56:55;;;;;;;18.33;9.40;;;22.90;50.90;;;;;;4990235;28;48451;-69
2022/08/29 08:59:33;;;;;;;14.70;9.70;;;22.90;50.50;;;;;;4980343;28;46045;-69
2022/08/29 09:02:05;;;;;;;13.27;8.87;;;22.80;50.60;;;;;;4980033;28;46490;-69
2022/08/29 09:04:46;;;;;;;13.37;9.20;;;22.90;51.00;;;;;;4978994;28;46379;-70
2022/08/29 09:07:21;;;;;;;13.70;9.57;;;23.00;50.40;;;;;;4980425;28;46926;-68
2022/08/29 09:09:55;;;;;;;14.57;9.73;;;23.20;50.60;;;;;;4979887;28;46436;-69
2022/08/29 09:12:53;;;;;;;15.40;11.10;;;23.30;50.70;;;;;;4979228;28;46558;-68
2022/08/29 09:15:23;;;;;;;15.17;9.90;;;23.50;50.20;;;;;;4974206;28;46412;-69
2022/08/29 09:18:03;;;;;;;13.17;8.60;;;23.60;49.60;;;;;;4979172;28;47139;-68
2022/08/29 09:20:33;;;;;;;13.83;9.23;;;23.70;48.90;;;;;;4978043;28;46460;-69
2022/08/29 09:23:21;;;;;;;13.27;8.77;;;23.80;48.00;;;;;;4978419;28;46665;-70
2022/08/29 09:25:47;;;;;;;18.73;9.80;;;24.00;47.20;;;;;;4994743;28;46478;-69
2022/08/29 09:28:13;;;;;;;13.40;9.13;;;24.10;47.10;;;;;;4980980;28;47010;-69
2022/08/29 09:30:41;;;;;;;14.63;8.90;;;23.90;47.20;;;;;;4979292;28;46447;-69
2022/08/29 09:33:15;;;;;;;14.30;8.67;;;23.70;47.70;;;;;;4978327;28;46417;-69
2022/08/29 09:35:43;;;;;;;13.83;9.27;;;23.70;47.70;;;;;;4979356;28;46269;-69
2022/08/29 09:38:30;;;;;;;13.23;8.80;;;24.20;46.50;;;;;;4978365;28;47077;-70
2022/08/29 09:40:55;;;;;;;10.87;8.10;;;24.50;45.10;;;;;;4977052;28;46718;-70
2022/08/29 09:43:39;;;;;;;14.30;8.30;;;24.60;44.90;;;;;;4977969;28;46502;-69
2022/08/29 09:46:21;;;;;;;12.83;9.43;;;24.60;44.10;;;;;;4977540;28;46364;-70
2022/08/29 09:48:51;;;;;;;13.40;8.10;;;24.90;43.20;;;;;;4977720;28;46518;-68
2022/08/29 09:51:33;;;;;;;13.60;9.77;;;25.50;41.10;;;;;;4975504;28;46512;-69
2022/08/29 09:54:23;;;;;;;14.17;9.57;;;25.40;41.60;;;;;;4976433;28;46494;-68
2022/08/29 09:57:15;;;;;;;13.37;8.90;;;25.00;41.80;;;;;;4978166;28;46430;-69
2022/08/29 09:59:44;;;;;;;12.90;6.80;;;25.20;42.00;;;;;;4976208;28;46600;-68
2022/08/29 10:02:26;;;;;;;10.80;6.93;;;25.30;41.80;;;;;;4978221;28;46412;-70
2022/08/29 10:05:08;;;;;;;16.43;8.37;;;25.20;41.40;;;;;;4977831;28;46471;-70
2022/08/29 10:07:56;;;;;;;15.50;7.57;;;25.50;39.10;;;;;;4976694;28;46726;-71
2022/08/29 10:10:29;;;;;;;14.20;7.90;;;25.40;38.90;;;;;;4974198;28;46442;-71
2022/08/29 10:13:29;;;;;;;11.70;6.17;;;25.30;38.80;;;;;;4976049;28;46402;-70
2022/08/29 10:16:19;;;;;;;13.83;6.60;;;25.50;39.00;;;;;;4975839;28;46452;-70
2022/08/29 10:18:51;;;;;;;11.53;6.10;;;25.50;38.80;;;;;;4977657;28;46435;-69
2022/08/29 10:21:32;;;;;;;13.50;7.43;;;25.50;38.10;;;;;;4976530;28;46825;-69
2022/08/29 10:24:07;;;;;;;11.33;6.47;;;25.40;37.50;;;;;;4978018;28;46477;-69
2022/08/29 10:26:38;;;;;;;11.47;7.17;;;25.50;37.80;;;;;;4996632;28;46514;-67
2022/08/29 10:29:33;;;;;;;10.73;7.00;;;25.40;37.10;;;;;;4979193;28;45873;-67
2022/08/29 10:32:27;;;;;;;10.70;6.43;;;25.20;37.30;;;;;;4981199;28;46657;-70
2022/08/29 10:34:59;;;;;;;8.47;6.13;;;25.30;37.60;;;;;;4980251;28;46427;-70
2022/08/29 10:37:38;;;;;;;11.87;6.77;;;25.50;36.00;;;;;;4980438;28;46973;-68
2022/08/29 10:40:25;;;;;;;12.20;7.47;;;25.10;36.00;;;;;;4979280;28;46486;-68
2022/08/29 10:43:04;;;;;;;10.83;6.03;;;25.00;35.50;;;;;;4980819;28;46526;-70
2022/08/29 10:45:57;;;;;;;9.33;6.17;;;25.50;34.90;;;;;;4982328;28;46454;-70
2022/08/29 10:48:35;;;;;;;7.60;5.20;;;26.00;33.30;;;;;;4979945;28;46653;-69
2022/08/29 10:51:18;;;;;;;9.50;6.03;;;26.20;31.50;;;;;;4981756;28;46504;-70
2022/08/29 10:53:54;;;;;;;9.77;6.03;;;26.20;30.80;;;;;;4979750;28;46468;-69
2022/08/29 10:56:34;;;;;;;11.03;5.77;;;26.20;30.70;;;;;;4980849;28;46424;-69
2022/08/29 10:59:02;;;;;;;10.17;6.10;;;26.30;30.80;;;;;;4978914;28;45881;-70
2022/08/29 11:01:49;;;;;;;14.63;6.27;;;26.00;31.20;;;;;;4978628;28;46487;-70
2022/08/29 11:04:49;;;;;;;12.57;7.20;;;25.70;30.60;;;;;;4977628;28;46399;-70
2022/08/29 11:07:40;;;;;;;13.13;6.17;;;25.50;31.80;;;;;;4979364;28;45854;-68
2022/08/29 11:10:19;;;;;;;10.70;7.10;;;25.50;31.90;;;;;;4979833;28;46396;-69
2022/08/29 11:12:55;;;;;;;10.33;6.67;;;25.40;32.30;;;;;;4978866;28;46582;-69
2022/08/29 11:15:23;;;;;;;13.07;7.77;;;25.30;32.70;;;;;;4978771;28;46432;-69
2022/08/29 11:18:35;;;;;;;9.70;6.23;;;25.20;32.90;;;;;;4980562;28;46466;-69
2022/08/29 11:21:31;;;;;;;8.00;5.83;;;25.10;32.60;;;;;;4980280;28;46488;-70
2022/08/29 11:24:01;;;;;;;12.83;6.13;;;25.40;32.00;;;;;;4978750;28;46343;-70
2022/08/29 11:26:39;;;;;;;9.77;6.10;;;25.10;32.40;;;;;;4977865;28;46308;-73
2022/08/29 11:29:40;;;;;;;10.13;6.00;;;25.10;32.60;;;;;;4979411;28;46491;-70
2022/08/29 11:32:27;;;;;;;10.77;6.03;;;25.10;32.30;;;;;;4980690;28;46650;-72
2022/08/29 11:35:30;;;;;;;7.77;6.00;;;25.40;31.40;;;;;;4981160;28;46383;-71
2022/08/29 11:38:09;;;;;;;7.67;5.60;;;25.40;31.60;;;;;;4980997;28;46749;-72
2022/08/29 11:40:55;;;;;;;12.67;5.47;;;25.30;31.10;;;;;;4978356;28;46498;-71
2022/08/29 11:43:26;;;;;;;8.43;5.57;;;25.20;30.80;;;;;;4978322;28;46327;-71
2022/08/29 11:46:00;;;;;;;7.93;5.87;;;25.10;30.70;;;;;;4980792;28;46901;-72
2022/08/29 11:48:32;;;;;;;8.63;5.13;;;24.90;31.00;;;;;;4978885;28;46366;-71
2022/08/29 11:50:59;;;;;;;6.87;5.13;;;24.80;31.30;;;;;;4979516;28;47011;-71
2022/08/29 11:53:33;;;;;;;13.23;5.10;;;24.70;31.40;;;;;;4978272;28;46519;-72
2022/08/29 11:56:11;;;;;;;9.83;5.47;;;24.70;31.30;;;;;;4980103;28;46455;-70
2022/08/29 11:58:39;;;;;;;10.77;5.50;;;24.40;31.10;;;;;;4980539;28;46359;-69
2022/08/29 12:01:08;;;;;;;7.23;4.80;;;24.30;31.40;;;;;;4981377;28;46383;-71
2022/08/29 12:03:33;;;;;;;7.87;5.30;;;24.30;31.50;;;;;;4978124;28;46476;-70
2022/08/29 12:06:27;;;;;;;8.20;5.07;;;24.40;31.10;;;;;;4979059;28;46503;-71
2022/08/29 12:09:19;;;;;;;7.63;4.80;;;24.70;30.00;;;;;;4979305;28;46510;-70
2022/08/29 12:12:12;;;;;;;7.50;5.40;;;24.90;29.20;;;;;;4978843;28;46456;-70
2022/08/29 12:14:49;;;;;;;7.97;4.53;;;25.20;28.90;;;;;;4975446;28;46429;-71
2022/08/29 12:17:28;;;;;;;10.83;4.90;;;25.40;28.20;;;;;;4978850;28;46673;-68
2022/08/29 12:20:05;;;;;;;9.47;5.40;;;25.70;27.80;;;;;;4977960;28;46969;-68
2022/08/29 12:22:52;;;;;;;8.87;4.80;;;26.00;27.10;;;;;;4978298;28;46488;-69
2022/08/29 12:25:27;;;;;;;10.17;4.30;;;26.30;26.70;;;;;;4979178;28;46413;-69
2022/08/29 12:28:26;;;;;;;7.90;3.90;;;26.50;25.90;;;;;;4977374;28;46798;-68
2022/08/29 12:30:58;;;;;;;8.00;4.80;;;26.60;24.80;;;;;;4979407;28;48510;-70
2022/08/29 12:33:45;;;;;;;9.53;4.73;;;26.80;24.80;;;;;;4977629;28;46576;-69
2022/08/29 12:36:26;;;;;;;6.37;4.30;;;27.00;24.70;;;;;;4979025;28;46513;-68
2022/08/29 12:39:09;;;;;;;6.50;4.53;;;27.20;24.40;;;;;;4977382;28;46719;-70
2022/08/29 12:42:04;;;;;;;7.07;5.10;;;27.20;24.80;;;;;;4977067;28;47268;-70
2022/08/29 12:44:36;;;;;;;6.67;4.70;;;27.10;24.20;;;;;;4977947;28;46449;-68
2022/08/29 12:47:09;;;;;;;10.20;4.80;;;27.40;25.00;;;;;;4977962;28;46515;-68
2022/08/29 12:49:42;;;;;;;7.70;4.80;;;27.00;24.00;;;;;;4979474;28;46519;-67
2022/08/29 12:52:26;;;;;;;7.90;4.70;;;26.40;23.80;;;;;;4978398;28;46397;-64
2022/08/29 12:54:54;;;;;;;10.63;5.10;;;25.90;24.70;;;;;;4978014;28;46379;-68
2022/08/29 12:57:35;;;;;;;8.37;5.20;;;25.60;25.70;;;;;;4980140;28;46638;-68